September 30, 2016
Temp
 
90.7 °F
 
Dew Pt.
 
55.0 °F
 
Humidity
 
30%
 
Pressure
 
1015.6 hPa 
  steady
Wind
 
3.0 mph 
    WSW
Rain
 
0.00 in 
  0.00 in/hr
UV index
 
---  
 
Solar rad.
 
100 W/m²
 
Today

Today: Sunny, with a high near 93. Southwest wind 5 to 10 mph, with gusts as high as 15 mph.
Sunny
Tonight

Tonight: Mostly clear, with a low around 62. Southwest wind 5 to 10 mph becoming light south  in the evening. Winds could gust as high as 15 mph.
Mostly Clear
Hi 93 °F Lo 62 °F
Statistics - 9/30/2016
Max Temp 90.6 °F  11:30 am
Min Temp 67.0 °F  6:50 am
Max Dew Pt 56.2 °F  10:40 am
Min Dew Pt 50.4 °F  7:05 am
Max Pressure 1016.3 hPa  9:55 am
Min Pressure 1015.2 hPa  4:00 am
Max Wind 7 mph  11:30 am
Max UV —   —
Max Solar —   —
Max Rainfall Rate —   —
Total Precipitation —   
Current Temp 90.6 °F  11:30 am
Temp 24hr ago 93.3 °F  11:30 am
Difference -2.7 °F  
Temp Rate +4.0 °F/hr  
Pressure Rate -0.4 hPa/hr  
time temp dew pt pressure uv solar wind wind speed rainfall rate
00:00 71.4 °F 55.4 °F 1016.0 hPa  Calm    
00:05 71.3 °F 55.3 °F 1015.9 hPa  Calm    
00:10 71.1 °F 55.1 °F 1015.9 hPa  E 5 mph   
00:15 71.0 °F 54.5 °F 1015.8 hPa  E 5 mph   
00:20 70.9 °F 54.4 °F 1015.8 hPa  E 6 mph   
00:25 70.8 °F 53.8 °F 1015.9 hPa  E 5 mph   
00:30 70.7 °F 53.7 °F 1015.8 hPa  E 5 mph   
00:35 70.7 °F 53.2 °F 1015.9 hPa  ESE 3 mph   
00:40 70.6 °F 53.1 °F 1015.8 hPa  Calm    
00:45 70.6 °F 53.1 °F 1015.8 hPa  Calm    
00:50 70.5 °F 53.0 °F 1015.8 hPa  ESE 2 mph   
00:55 70.4 °F 52.9 °F 1015.7 hPa  E 1 mph   
01:00 70.2 °F 52.3 °F 1015.6 hPa  E 6 mph   
01:05 70.2 °F 52.3 °F 1015.6 hPa  SW 1 mph   
01:10 70.1 °F 52.2 °F 1015.6 hPa  SE 2 mph   
01:15 70.1 °F 52.2 °F 1015.6 hPa  E 3 mph   
01:20 70.0 °F 52.1 °F 1015.5 hPa  Calm    
01:25 69.9 °F 52.0 °F 1015.5 hPa  Calm    
01:30 69.8 °F 51.9 °F 1015.6 hPa  SSE 2 mph   
01:35 69.7 °F 52.3 °F 1015.6 hPa  SE 1 mph   
01:40 69.6 °F 52.2 °F 1015.7 hPa  SW 1 mph   
01:45 69.5 °F 52.1 °F 1015.8 hPa  E 3 mph   
01:50 69.4 °F 52.0 °F 1015.8 hPa  E 5 mph   
01:55 69.3 °F 51.4 °F 1015.7 hPa  E 2 mph   
02:00 69.3 °F 51.4 °F 1015.7 hPa  E 1 mph   
02:05 69.2 °F 51.8 °F 1015.8 hPa  E 6 mph   
02:10 69.1 °F 51.2 °F 1015.8 hPa  E 2 mph   
02:15 69.1 °F 51.7 °F 1015.8 hPa  SE 2 mph   
02:20 69.0 °F 51.1 °F 1015.8 hPa  ESE 4 mph   
02:25 69.0 °F 51.7 °F 1015.8 hPa  ESE 3 mph   
02:30 68.9 °F 51.1 °F 1015.7 hPa  Calm    
02:35 68.9 °F 51.1 °F 1015.7 hPa  WSW 1 mph   
02:40 68.8 °F 51.5 °F 1015.7 hPa  WSW 1 mph   
02:45 68.7 °F 51.4 °F 1015.7 hPa  Calm    
02:50 68.7 °F 51.4 °F 1015.6 hPa  Calm    
02:55 68.6 °F 51.3 °F 1015.5 hPa  W 1 mph   
03:00 68.5 °F 51.2 °F 1015.5 hPa  Calm    
03:05 68.4 °F 51.1 °F 1015.5 hPa  Calm    
03:10 68.4 °F 51.1 °F 1015.5 hPa  Calm    
03:15 68.3 °F 51.0 °F 1015.5 hPa  Calm    
03:20 68.3 °F 51.0 °F 1015.4 hPa  Calm    
03:25 68.2 °F 51.4 °F 1015.4 hPa  Calm    
03:30 68.2 °F 50.9 °F 1015.4 hPa  Calm    
03:35 68.1 °F 50.8 °F 1015.3 hPa  Calm    
03:40 68.1 °F 50.8 °F 1015.2 hPa  Calm    
03:45 68.0 °F 50.7 °F 1015.2 hPa  Calm    
03:50 68.1 °F 50.8 °F 1015.2 hPa  Calm    
03:55 68.1 °F 50.8 °F 1015.2 hPa  Calm    
04:00 68.2 °F 50.9 °F 1015.2 hPa  Calm    
04:05 68.3 °F 51.0 °F 1015.2 hPa  Calm    
04:10 68.2 °F 50.9 °F 1015.2 hPa  Calm    
04:15 68.3 °F 51.0 °F 1015.2 hPa  Calm    
04:20 68.2 °F 50.9 °F 1015.2 hPa  Calm    
04:25 68.3 °F 51.0 °F 1015.3 hPa  Calm    
04:30 68.3 °F 51.0 °F 1015.3 hPa  Calm    
04:35 68.3 °F 51.0 °F 1015.3 hPa  Calm    
04:40 68.3 °F 51.0 °F 1015.3 hPa  Calm    
04:45 68.3 °F 51.0 °F 1015.2 hPa  Calm    
04:50 68.3 °F 51.0 °F 1015.3 hPa  Calm    
04:55 68.3 °F 51.0 °F 1015.2 hPa  Calm    
05:00 68.3 °F 51.0 °F 1015.3 hPa  Calm    
05:05 68.3 °F 51.0 °F 1015.3 hPa  Calm    
05:10 68.3 °F 51.0 °F 1015.2 hPa  Calm    
05:15 68.3 °F 51.0 °F 1015.2 hPa  Calm    
05:20 68.3 °F 50.5 °F 1015.3 hPa  Calm    
05:25 68.3 °F 51.0 °F 1015.4 hPa  Calm    
05:30 68.3 °F 51.0 °F 1015.3 hPa  Calm    
05:35 68.1 °F 50.8 °F 1015.4 hPa  Calm    
05:40 68.1 °F 50.8 °F 1015.4 hPa  Calm    
05:45 68.0 °F 51.2 °F 1015.4 hPa  Calm    
05:50 67.9 °F 51.1 °F 1015.4 hPa  Calm    
05:55 67.8 °F 51.0 °F 1015.5 hPa  Calm    
06:00 67.7 °F 50.9 °F 1015.5 hPa  Calm    
06:05 67.6 °F 51.3 °F 1015.5 hPa  Calm    
06:10 67.5 °F 50.8 °F 1015.5 hPa  Calm    
06:15 67.4 °F 50.7 °F 1015.5 hPa  Calm    
06:20 67.4 °F 51.2 °F 1015.5 hPa  Calm    
06:25 67.3 °F 51.1 °F 1015.5 hPa  Calm    
06:30 67.2 °F 51.0 °F 1015.5 hPa  Calm    
06:35 67.1 °F 50.9 °F 1015.4 hPa  Calm    
06:40 67.1 °F 50.9 °F 1015.5 hPa  Calm    
06:45 67.1 °F 50.9 °F 1015.5 hPa  Calm    
06:50 67.1 °F 50.4 °F 1015.6 hPa  Calm    
06:55 67.1 °F 50.4 °F 1015.6 hPa  Calm    
07:00 67.1 °F 50.4 °F 1015.6 hPa  Calm    
07:05 67.1 °F 50.4 °F 1015.6 hPa  Calm    
07:10 67.1 °F 50.9 °F 1015.6 hPa  Calm    
07:15 67.1 °F 50.9 °F 1015.6 hPa  Calm    
07:20 67.1 °F 50.9 °F 1015.6 hPa  Calm    
07:25 67.2 °F 51.4 °F 1015.7 hPa  Calm    
07:30 67.3 °F 52.5 °F 1015.7 hPa  Calm    
07:35 67.7 °F 51.9 °F 1015.7 hPa  Calm    
07:40 68.0 °F 52.2 °F 1015.8 hPa  Calm    
07:45 68.3 °F 53.9 °F 1015.8 hPa  Calm    
07:50 68.8 °F 54.8 °F 1015.9 hPa  Calm    
07:55 69.2 °F 54.7 °F 1015.9 hPa  Calm    
08:00 69.7 °F 54.3 °F 1016.0 hPa  Calm    
08:05 70.2 °F 54.7 °F 1016.0 hPa  Calm    
08:10 70.8 °F 54.3 °F 1016.0 hPa  Calm    
08:15 71.5 °F 54.0 °F 1016.0 hPa  Calm    
08:20 72.6 °F 53.4 °F 1016.0 hPa  Calm    
08:25 74.0 °F 53.0 °F 1016.0 hPa  Calm    
08:30 75.2 °F 53.0 °F 1016.0 hPa  Calm    
08:35 76.2 °F 53.3 °F 1016.1 hPa  Calm    
08:40 76.7 °F 53.1 °F 1016.1 hPa  Calm    
08:45 77.6 °F 52.0 °F 1016.1 hPa  SW 2 mph   
08:50 78.2 °F 52.6 °F 1016.1 hPa  WSW 3 mph   
08:55 78.7 °F 52.3 °F 1016.1 hPa  SSE 2 mph   
09:00 79.2 °F 52.1 °F 1016.1 hPa  SW 1 mph   
09:05 79.7 °F 51.8 °F 1016.1 hPa  SW 1 mph   
09:10 80.4 °F 52.4 °F 1016.1 hPa  SSE 2 mph   
09:15 81.1 °F 52.3 °F 1016.1 hPa  ESE 2 mph   
09:20 81.6 °F 52.8 °F 1016.1 hPa  E 3 mph   
09:25 82.1 °F 52.5 °F 1016.2 hPa  ESE 2 mph   
09:30 82.5 °F 52.8 °F 1016.1 hPa  SE 1 mph   
09:35 82.8 °F 52.3 °F 1016.1 hPa  E 3 mph   
09:40 83.0 °F 52.5 °F 1016.2 hPa  ESE 2 mph   
09:45 83.3 °F 53.5 °F 1016.2 hPa  WSW 3 mph   
09:50 83.8 °F 53.2 °F 1016.3 hPa  SW 4 mph   
09:55 84.3 °F 52.8 °F 1016.3 hPa  SW 4 mph   
10:00 84.8 °F 53.3 °F 1016.2 hPa  SW 3 mph   
10:05 85.0 °F 53.5 °F 1016.2 hPa  WSW 4 mph   
10:10 85.5 °F 53.9 °F 1016.2 hPa  SW 4 mph   
10:15 86.0 °F 54.3 °F 1016.2 hPa  SW 3 mph   
10:20 86.1 °F 54.4 °F 1016.2 hPa  SW 4 mph   
10:25 86.2 °F 54.5 °F 1016.2 hPa  SW 4 mph   
10:30 86.4 °F 54.7 °F 1016.2 hPa  SW 5 mph   
10:35 86.7 °F 54.9 °F 1016.2 hPa  WSW 4 mph   
10:40 87.2 °F 56.2 °F 1016.2 hPa  SW 4 mph   
10:45 87.6 °F 54.9 °F 1016.1 hPa  WSW 3 mph   
10:50 88.0 °F 54.4 °F 1016.1 hPa  SW 4 mph   
10:55 88.3 °F 55.5 °F 1016.1 hPa  SSW 4 mph   
11:00 88.7 °F 55.0 °F 1016.0 hPa  S 5 mph   
11:05 89.0 °F 56.1 °F 1016.0 hPa  SW 6 mph   
11:10 89.3 °F 55.5 °F 1015.8 hPa  SW 5 mph   
11:15 89.7 °F 55.9 °F 1015.8 hPa  WSW 4 mph   
11:20 90.2 °F 55.4 °F 1015.8 hPa  WSW 4 mph   
11:25 90.4 °F 55.6 °F 1015.7 hPa  WSW 4 mph   
11:30 90.6 °F 55.8 °F 1015.7 hPa  WSW 7 mph